Time;durP1;ratioP1;P1;durP2;ratioP2;P2;SDS_P1;SDS_P2;PMS_P1;PMS_P2;Temp;Humidity;BMP_temperature;BMP_pressure;BME280_temperature;BME280_humidity;BME280_pressure;Samples;Min_cycle;Max_cycle;Signal;HPM_P1;HPM_P2
2023/12/24 00:04:42;;;;;;;7.07;2.15;;;;;;;18.75;41.47;100918.31;16106476;19;129824;-59
2023/12/24 00:10:04;;;;;;;9.18;1.67;;;;;;;18.72;41.16;100914.09;16104097;19;131539;-59
2023/12/24 00:15:26;;;;;;;5.82;1.38;;;;;;;18.72;41.12;100916.03;16108990;19;131172;-59
2023/12/24 00:20:48;;;;;;;5.25;1.40;;;;;;;18.70;41.39;100919.06;16103905;19;131349;-59
2023/12/24 00:26:10;;;;;;;4.10;1.40;;;;;;;18.69;41.39;100919.28;16102317;19;129290;-59
2023/12/24 00:31:32;;;;;;;5.70;1.80;;;;;;;18.68;41.02;100901.84;16116035;19;130472;-59
2023/12/24 00:36:54;;;;;;;7.53;2.03;;;;;;;18.65;41.31;100885.69;16119651;19;131459;-59
2023/12/24 00:42:16;;;;;;;6.00;1.40;;;;;;;18.63;40.71;100879.56;16125653;19;131873;-59
2023/12/24 00:47:39;;;;;;;5.43;1.70;;;;;;;18.61;40.86;100878.94;16120466;19;131016;-59
2023/12/24 00:53:01;;;;;;;4.22;1.48;;;;;;;18.60;40.88;100866.19;16123692;19;131292;-59
2023/12/24 00:58:23;;;;;;;5.13;1.58;;;;;;;18.57;41.13;100856.44;16116801;19;130719;-59
2023/12/24 01:03:45;;;;;;;6.22;1.33;;;;;;;18.57;41.05;100855.63;16119665;19;129758;-59
2023/12/24 01:09:08;;;;;;;5.63;1.45;;;;;;;18.54;41.13;100842.25;16120175;19;129509;-59
2023/12/24 01:14:29;;;;;;;4.18;1.30;;;;;;;18.53;40.78;100826.72;16120756;19;130545;-59
2023/12/24 01:19:51;;;;;;;3.83;1.30;;;;;;;18.50;40.59;100807.81;16116568;19;130529;-60
2023/12/24 01:25:13;;;;;;;5.60;1.40;;;;;;;18.50;40.77;100796.75;16115736;19;130530;-59
2023/12/24 01:30:35;;;;;;;6.07;1.48;;;;;;;18.48;40.88;100797.00;16120568;19;130410;-59
2023/12/24 01:35:57;;;;;;;2.60;0.88;;;;;;;18.48;40.97;100790.59;16116829;19;130095;-59
2023/12/24 01:41:19;;;;;;;1.92;0.80;;;;;;;18.45;40.60;100781.72;16110524;19;130023;-59
2023/12/24 01:46:42;;;;;;;3.28;0.95;;;;;;;18.46;40.67;100783.38;16118014;19;129646;-59
2023/12/24 01:52:05;;;;;;;4.55;1.13;;;;;;;18.43;40.50;100778.34;16113789;19;131493;-59
2023/12/24 01:57:30;;;;;;;3.75;0.90;;;;;;;18.41;40.82;100769.44;16112859;19;130997;-59
2023/12/24 02:02:54;;;;;;;2.55;1.10;;;;;;;18.39;40.62;100766.09;16115313;19;130955;-59
2023/12/24 02:08:21;;;;;;;3.05;0.95;;;;;;;18.38;40.61;100769.09;16113899;19;130783;-60
2023/12/24 02:13:44;;;;;;;3.53;1.05;;;;;;;18.37;40.83;100773.75;16116639;19;129781;-59
2023/12/24 02:19:09;;;;;;;2.38;0.88;;;;;;;18.35;40.81;100781.47;16111506;19;130250;-59
2023/12/24 02:24:31;;;;;;;2.38;0.80;;;;;;;18.34;40.51;100779.78;16116334;19;132127;-59
2023/12/24 02:29:59;;;;;;;3.55;0.80;;;;;;;18.34;40.74;100774.25;16111827;19;130923;-59
2023/12/24 02:35:21;;;;;;;1.63;0.50;;;;;;;18.31;40.45;100764.53;16108053;19;131321;-59
2023/12/24 02:40:43;;;;;;;2.08;0.63;;;;;;;18.29;40.88;100752.03;16119215;19;130265;-59
2023/12/24 02:46:05;;;;;;;1.85;0.55;;;;;;;18.28;40.46;100747.56;16110230;19;129625;-58
2023/12/24 02:51:28;;;;;;;2.45;0.60;;;;;;;18.25;40.42;100737.84;16111684;19;130001;-59
2023/12/24 02:56:50;;;;;;;0.65;0.32;;;;;;;18.25;40.51;100732.28;16116933;19;130798;-59
2023/12/24 03:02:12;;;;;;;1.55;0.43;;;;;;;18.23;40.72;100725.31;16116245;19;130370;-59
2023/12/24 03:07:34;;;;;;;1.23;0.38;;;;;;;18.21;40.67;100724.75;16103376;19;129341;-59
2023/12/24 03:12:56;;;;;;;0.95;0.40;;;;;;;18.20;40.92;100714.75;16112099;19;129482;-59
2023/12/24 03:18:18;;;;;;;1.27;0.50;;;;;;;18.21;40.93;100708.13;16110294;19;130343;-59
2023/12/24 03:23:40;;;;;;;1.08;0.30;;;;;;;18.20;40.66;100696.19;16115970;19;130905;-59
2023/12/24 03:29:02;;;;;;;2.00;0.50;;;;;;;18.18;40.75;100676.22;16113717;19;129874;-59
2023/12/24 03:34:24;;;;;;;0.90;0.30;;;;;;;18.18;40.74;100675.38;16109161;19;130826;-59
2023/12/24 03:39:46;;;;;;;0.82;0.35;;;;;;;18.15;40.82;100655.41;16108224;19;129670;-59
2023/12/24 03:45:08;;;;;;;1.13;0.30;;;;;;;18.14;41.05;100653.72;16109675;19;130121;-59
2023/12/24 03:50:30;;;;;;;0.65;0.22;;;;;;;18.13;41.02;100651.22;16108145;19;130128;-59
2023/12/24 03:55:52;;;;;;;0.50;0.30;;;;;;;18.12;40.80;100635.69;16110239;19;129784;-59
2023/12/24 04:01:13;;;;;;;1.02;0.32;;;;;;;18.10;41.01;100640.66;16104691;19;130551;-59
2023/12/24 04:06:36;;;;;;;1.02;0.28;;;;;;;18.09;40.70;100628.72;16108181;19;131122;-59
2023/12/24 04:11:58;;;;;;;0.77;0.30;;;;;;;18.09;40.88;100641.72;16106547;19;129687;-59
2023/12/24 04:17:20;;;;;;;0.43;0.20;;;;;;;18.09;40.82;100650.03;16109333;19;131217;-59
2023/12/24 04:22:42;;;;;;;0.70;0.22;;;;;;;18.07;40.94;100641.13;16107651;19;130490;-59
2023/12/24 04:28:04;;;;;;;0.75;0.30;;;;;;;18.05;40.78;100630.31;16109282;19;129466;-59
2023/12/24 04:33:26;;;;;;;0.32;0.20;;;;;;;18.03;41.21;100638.03;16108172;19;130548;-59
2023/12/24 04:38:49;;;;;;;0.10;0.10;;;;;;;18.03;41.27;100634.44;16102396;19;132035;-59
2023/12/24 04:44:11;;;;;;;0.35;0.20;;;;;;;18.02;40.98;100649.38;16106455;19;130667;-59
2023/12/24 04:49:33;;;;;;;0.40;0.20;;;;;;;18.01;41.27;100626.38;16106130;19;129729;-59
2023/12/24 04:54:55;;;;;;;0.57;0.10;;;;;;;18.00;41.29;100624.69;16104531;19;129834;-59
2023/12/24 05:00:17;;;;;;;0.35;0.10;;;;;;;17.98;41.33;100630.47;16107047;19;130680;-58
2023/12/24 05:05:39;;;;;;;0.38;0.00;;;;;;;17.98;41.31;100624.94;16097750;19;130218;-59
2023/12/24 05:11:05;;;;;;;0.20;0.20;;;;;;;17.98;40.92;100626.84;16102294;19;131098;-59
2023/12/24 05:16:27;;;;;;;0.10;0.10;;;;;;;17.95;41.23;100628.19;16108882;19;131174;-59
2023/12/24 05:21:49;;;;;;;0.10;0.10;;;;;;;17.94;41.33;100622.94;16121811;19;129387;-59
2023/12/24 05:27:11;;;;;;;0.70;0.20;;;;;;;17.93;41.35;100610.19;16115241;19;131390;-59
2023/12/24 05:32:33;;;;;;;0.25;0.10;;;;;;;17.92;41.03;100619.56;16119008;19;131007;-59
2023/12/24 05:37:55;;;;;;;0.38;0.10;;;;;;;17.92;41.47;100616.78;16119879;19;130057;-59
2023/12/24 05:43:17;;;;;;;0.22;0.20;;;;;;;17.91;41.34;100621.47;16115530;19;131566;-59
2023/12/24 05:48:39;;;;;;;1.02;0.17;;;;;;;17.90;41.08;100605.13;16125619;19;129922;-59
2023/12/24 05:54:01;;;;;;;0.30;0.10;;;;;;;17.89;41.45;100597.91;16118199;19;129849;-59
2023/12/24 05:59:23;;;;;;;0.88;0.25;;;;;;;17.87;41.18;100612.00;16113546;19;131642;-59
2023/12/24 06:04:45;;;;;;;0.43;0.20;;;;;;;17.85;41.26;100612.25;16112335;19;131576;-59
2023/12/24 06:10:07;;;;;;;0.30;0.17;;;;;;;17.91;41.48;100615.13;16115673;19;130810;-59
2023/12/24 06:15:30;;;;;;;0.73;0.20;;;;;;;18.02;41.47;100605.91;16111822;19;131362;-59
2023/12/24 06:20:52;;;;;;;0.30;0.10;;;;;;;18.14;40.87;100586.47;16117053;19;129400;-59
2023/12/24 06:26:14;;;;;;;0.03;0.03;;;;;;;18.28;40.93;100584.19;16113869;19;130983;-59
2023/12/24 06:31:36;;;;;;;0.77;0.25;;;;;;;18.42;40.56;100593.88;16115233;19;129467;-59
2023/12/24 06:36:58;;;;;;;1.05;0.20;;;;;;;18.55;40.46;100586.28;16112045;19;129307;-59
2023/12/24 06:42:19;;;;;;;0.52;0.10;;;;;;;18.66;40.60;100581.72;16115530;19;130648;-59
2023/12/24 06:47:41;;;;;;;0.77;0.28;;;;;;;18.74;40.27;100571.03;16114467;19;131162;-59
2023/12/24 06:53:05;;;;;;;0.70;0.10;;;;;;;18.81;40.11;100579.19;16114447;19;129396;-59
2023/12/24 06:58:27;;;;;;;0.47;0.20;;;;;;;18.85;40.44;100590.59;16114254;19;129877;-59
2023/12/24 07:03:49;;;;;;;0.45;0.20;;;;;;;18.88;39.97;100579.84;16110382;19;131513;-59
2023/12/24 07:09:11;;;;;;;0.70;0.13;;;;;;;18.92;40.40;100566.31;16109195;19;131881;-59
2023/12/24 07:14:33;;;;;;;0.60;0.15;;;;;;;18.98;40.17;100576.34;16107733;19;131086;-59
2023/12/24 07:19:55;;;;;;;0.55;0.20;;;;;;;19.03;40.05;100581.97;16105482;19;129571;-59
2023/12/24 07:25:17;;;;;;;0.20;0.10;;;;;;;19.06;39.97;100575.91;16105010;19;131968;-60
2023/12/24 07:30:40;;;;;;;0.47;0.25;;;;;;;19.07;40.23;100572.06;16105417;19;131014;-59
2023/12/24 07:36:05;;;;;;;1.38;0.20;;;;;;;19.04;40.07;100569.78;16108891;19;129675;-59
2023/12/24 07:41:27;;;;;;;0.68;0.28;;;;;;;19.00;39.77;100576.94;16107908;19;130440;-59
2023/12/24 07:46:49;;;;;;;0.60;0.10;;;;;;;18.97;39.81;100571.91;16109730;19;130269;-58
2023/12/24 07:52:11;;;;;;;0.30;0.10;;;;;;;18.94;40.14;100571.59;16107197;19;129454;-59
2023/12/24 07:57:32;;;;;;;1.05;0.20;;;;;;;18.90;40.35;100571.25;16103505;19;129860;-59
2023/12/24 08:02:54;;;;;;;0.60;0.30;;;;;;;18.88;40.46;100570.69;16105443;19;131178;-59
2023/12/24 08:08:17;;;;;;;1.50;0.30;;;;;;;18.86;40.38;100565.41;16106888;19;129790;-59
2023/12/24 08:13:39;;;;;;;3.47;0.40;;;;;;;18.85;40.49;100568.41;16105609;19;129833;-59
2023/12/24 08:19:02;;;;;;;0.65;0.20;;;;;;;18.88;40.53;100581.75;16104056;19;131319;-59
2023/12/24 08:24:24;;;;;;;0.38;0.10;;;;;;;18.92;40.56;100574.63;16109111;19;132303;-59
2023/12/24 08:29:46;;;;;;;0.75;0.20;;;;;;;18.97;40.42;100585.75;16107495;19;130533;-59
2023/12/24 08:35:08;;;;;;;1.80;0.20;;;;;;;18.98;40.43;100583.84;16108961;19;130792;-60
2023/12/24 08:40:30;;;;;;;1.13;0.13;;;;;;;18.99;40.52;100569.72;16107776;19;131065;-59
2023/12/24 08:45:52;;;;;;;1.05;0.25;;;;;;;18.98;40.70;100573.56;16107737;19;129573;-59
2023/12/24 08:51:14;;;;;;;0.75;0.30;;;;;;;18.99;40.53;100569.72;16106779;19;131702;-59
2023/12/24 08:56:36;;;;;;;3.58;0.32;;;;;;;19.06;40.88;100575.91;16117343;19;129191;-60
2023/12/24 09:01:58;;;;;;;2.42;0.30;;;;;;;19.14;40.87;100582.09;16121869;19;131203;-60
2023/12/24 09:07:20;;;;;;;1.17;0.28;;;;;;;19.20;40.46;100583.84;16120206;19;132504;-60
2023/12/24 09:12:42;;;;;;;1.63;0.40;;;;;;;19.28;40.64;100588.97;16117344;19;130792;-52
2023/12/24 09:18:04;;;;;;;9.60;0.77;;;;;;;19.36;40.85;100580.19;16117120;19;131070;-69
2023/12/24 09:23:49;;;;;;;8.23;0.50;;;;;;;19.41;40.78;100576.63;16089619;19;130621;-57
2023/12/24 09:29:13;;;;;;;2.90;0.50;;;;;;;19.46;40.58;100579.47;16071413;19;130592;-56
2023/12/24 09:34:35;;;;;;;2.67;0.25;;;;;;;19.51;40.88;100576.72;16105180;19;130194;-52
2023/12/24 09:39:57;;;;;;;5.18;0.45;;;;;;;19.59;40.73;100586.53;16120838;19;130635;-54
2023/12/24 09:45:21;;;;;;;7.65;0.40;;;;;;;19.66;40.66;100575.22;16118996;19;131827;-47
2023/12/24 09:50:43;;;;;;;1.17;0.30;;;;;;;19.73;40.53;100588.88;16111089;19;131580;-53
2023/12/24 09:56:07;;;;;;;6.78;0.52;;;;;;;19.77;40.67;100590.03;16116917;19;131681;-55
2023/12/24 10:01:40;;;;;;;5.20;0.45;;;;;;;19.81;40.44;100582.88;16111438;19;130005;-55
2023/12/24 10:07:02;;;;;;;1.45;0.47;;;;;;;19.84;40.82;100601.75;16117442;19;129375;-49
2023/12/24 10:12:24;;;;;;;2.03;0.32;;;;;;;19.89;40.85;100600.97;16114210;19;131442;-54
2023/12/24 10:17:46;;;;;;;3.35;0.55;;;;;;;19.89;40.45;100599.03;16112065;19;131310;-55
2023/12/24 10:23:08;;;;;;;1.30;0.30;;;;;;;19.88;40.71;100591.00;16108755;19;130175;-53
2023/12/24 10:28:32;;;;;;;5.43;0.60;;;;;;;19.89;40.43;100578.75;16110142;19;131172;-54
2023/12/24 10:34:01;;;;;;;10.70;0.70;;;;;;;19.89;40.21;100571.28;16078159;19;130625;-61
2023/12/24 10:39:24;;;;;;;16.50;1.00;;;;;;;19.89;40.63;100573.22;16090526;19;131257;-60
2023/12/24 10:44:48;;;;;;;22.40;1.23;;;;;;;19.85;40.31;100556.25;16114046;19;129716;-60
2023/12/24 10:50:10;;;;;;;26.13;1.58;;;;;;;19.84;41.18;100551.78;16111472;19;129908;-65
2023/12/24 10:55:34;;;;;;;9.30;0.82;;;;;;;19.86;40.94;100549.59;16110776;19;131070;-61
2023/12/24 11:01:07;;;;;;;22.25;1.40;;;;;;;19.84;40.74;100524.03;16104482;19;130690;-49
2023/12/24 11:06:40;;;;;;;30.50;1.73;;;;;;;19.82;40.60;100515.13;16099011;19;130602;-48
2023/12/24 11:12:02;;;;;;;31.70;1.98;;;;;;;19.83;40.81;100525.13;16088485;19;132836;-50
2023/12/24 11:17:33;;;;;;;18.70;1.05;;;;;;;19.86;41.19;100515.47;16089606;19;132071;-52
2023/12/24 11:23:04;;;;;;;8.85;0.80;;;;;;;19.87;41.22;100522.69;16095783;19;129778;-50
2023/12/24 11:28:26;;;;;;;15.20;1.05;;;;;;;19.86;41.16;100512.69;16101406;19;130980;-50
2023/12/24 11:33:49;;;;;;;19.92;1.60;;;;;;;19.86;40.61;100502.41;16107376;19;130586;-51
2023/12/24 11:39:11;;;;;;;11.40;1.20;;;;;;;19.85;41.18;100506.28;16108581;19;130012;-53
2023/12/24 11:44:33;;;;;;;7.20;1.08;;;;;;;19.83;40.87;100508.47;16105422;19;129024;-49
2023/12/24 11:49:55;;;;;;;13.57;1.35;;;;;;;19.80;41.22;100511.81;16107300;19;130247;-47
2023/12/24 11:55:18;;;;;;;11.32;1.02;;;;;;;19.80;41.15;100506.25;16099827;19;130992;-48
2023/12/24 12:00:39;;;;;;;9.02;1.00;;;;;;;19.80;41.38;100500.72;16103445;19;131423;-49
2023/12/24 12:06:03;;;;;;;8.65;0.98;;;;;;;19.80;41.76;100498.75;16090046;19;130826;-50
2023/12/24 12:11:25;;;;;;;10.20;1.10;;;;;;;19.83;41.71;100500.16;16098273;19;130392;-52
2023/12/24 12:16:47;;;;;;;4.30;0.90;;;;;;;19.83;41.70;100473.25;16099430;19;131547;-53
2023/12/24 12:22:09;;;;;;;5.15;1.05;;;;;;;19.82;41.93;100481.81;16101499;19;130619;-53
2023/12/24 12:27:31;;;;;;;6.28;1.30;;;;;;;19.79;41.86;100461.00;16123978;19;131122;-64
2023/12/24 12:32:53;;;;;;;7.05;1.83;;;;;;;19.76;41.91;100469.03;16136235;19;131308;-68
2023/12/24 12:38:16;;;;;;;23.98;10.25;;;;;;;19.78;42.28;100464.03;16137377;19;129241;-69
2023/12/24 12:43:38;;;;;;;22.77;9.23;;;;;;;19.77;42.16;100463.19;16135722;19;131706;-71
2023/12/24 12:49:00;;;;;;;22.02;9.15;;;;;;;19.80;42.67;100461.84;16140432;19;131175;-66
2023/12/24 12:54:22;;;;;;;20.90;8.13;;;;;;;19.80;42.93;100459.91;16141928;19;131018;-76
2023/12/24 12:59:44;;;;;;;29.23;10.38;;;;;;;19.82;42.84;100459.63;16145142;19;130229;-64
2023/12/24 13:05:27;;;;;;;31.63;9.68;;;;;;;19.87;42.98;100462.44;16140378;19;131158;-70
2023/12/24 13:10:49;;;;;;;59.35;26.38;;;;;;;19.87;43.13;100448.56;16139978;19;129869;-64
2023/12/24 13:16:12;;;;;;;40.17;18.17;;;;;;;19.87;43.73;100464.41;16140824;19;129520;-65
2023/12/24 13:21:34;;;;;;;43.42;15.52;;;;;;;19.82;43.89;100459.63;16135143;19;130139;-67
2023/12/24 13:26:56;;;;;;;31.33;10.07;;;;;;;19.82;43.87;100454.06;16159513;19;129937;-67
2023/12/24 13:32:17;;;;;;;29.67;8.52;;;;;;;19.86;43.82;100459.94;16161192;19;130214;-70
2023/12/24 13:37:39;;;;;;;17.65;6.47;;;;;;;19.94;43.38;100445.56;16166978;19;133298;-73
2023/12/24 13:43:08;;;;;;;16.40;5.65;;;;;;;20.05;43.40;100461.22;16167953;19;129901;-67
2023/12/24 13:48:30;;;;;;;18.67;4.72;;;;;;;20.13;42.97;100451.53;16153907;19;130891;-62
2023/12/24 13:53:52;;;;;;;18.67;3.97;;;;;;;20.22;43.30;100436.03;16147353;19;130355;-71
2023/12/24 13:59:15;;;;;;;7.47;3.03;;;;;;;20.33;43.52;100431.38;16186242;19;130081;-74
2023/12/24 14:04:36;;;;;;;10.10;2.90;;;;;;;20.47;43.24;100434.50;16186917;19;130574;-77
2023/12/24 14:09:59;;;;;;;6.05;2.35;;;;;;;20.57;43.45;100426.19;16193158;19;128827;-78
2023/12/24 14:15:22;;;;;;;6.15;2.00;;;;;;;20.68;43.76;100420.66;16194123;19;129083;-75
2023/12/24 14:20:44;;;;;;;6.10;1.88;;;;;;;20.78;43.28;100425.47;16189285;19;130898;-75
2023/12/24 14:26:06;;;;;;;7.35;1.70;;;;;;;20.81;43.64;100414.63;16192761;19;129695;-76
2023/12/24 14:31:28;;;;;;;8.43;2.10;;;;;;;20.84;43.64;100413.28;16193012;19;129549;-78
2023/12/24 14:36:50;;;;;;;3.03;1.55;;;;;;;20.83;44.31;100412.41;16189773;19;129993;-77
2023/12/24 14:42:12;;;;;;;6.53;1.63;;;;;;;20.83;44.02;100415.19;16191783;19;129170;-77
2023/12/24 14:47:34;;;;;;;4.22;1.17;;;;;;;20.80;44.32;100399.06;16177591;19;128956;-75
2023/12/24 14:52:56;;;;;;;6.22;1.27;;;;;;;20.77;43.88;100396.84;16184700;19;129259;-72
2023/12/24 14:58:18;;;;;;;6.70;1.08;;;;;;;20.75;44.16;100387.91;16181777;19;129087;-74
2023/12/24 15:03:40;;;;;;;7.90;1.30;;;;;;;20.72;44.20;100383.75;16175998;19;129254;-72
2023/12/24 15:09:07;;;;;;;7.50;1.27;;;;;;;20.67;44.89;100394.84;16146194;19;129687;-72
2023/12/24 15:14:29;;;;;;;5.82;1.15;;;;;;;20.59;44.96;100404.53;16149036;19;130532;-72
2023/12/24 15:19:54;;;;;;;4.95;0.80;;;;;;;20.50;44.82;100403.41;16128432;19;129342;-73
2023/12/24 15:25:16;;;;;;;5.82;1.15;;;;;;;20.44;44.89;100410.03;16117591;19;129558;-72
2023/12/24 15:30:38;;;;;;;4.05;0.88;;;;;;;20.39;45.05;100404.47;16121021;19;130270;-71
2023/12/24 15:36:00;;;;;;;4.90;0.80;;;;;;;20.33;45.08;100409.16;16108719;19;130548;-72
2023/12/24 15:41:22;;;;;;;2.53;0.60;;;;;;;20.32;44.02;100412.19;16111216;19;130822;-70
2023/12/24 15:46:44;;;;;;;2.80;0.80;;;;;;;20.28;44.50;100406.34;16106922;19;130494;-71
2023/12/24 15:52:07;;;;;;;4.63;0.75;;;;;;;20.26;43.56;100414.97;16110067;19;129724;-73
2023/12/24 15:57:29;;;;;;;5.22;1.10;;;;;;;20.27;43.98;100427.75;16108039;19;130999;-71
2023/12/24 16:02:54;;;;;;;3.03;0.77;;;;;;;20.28;43.69;100434.97;16108958;19;132282;-72
2023/12/24 16:08:16;;;;;;;3.80;0.90;;;;;;;20.30;43.88;100420.81;16109250;19;130542;-60
2023/12/24 16:13:39;;;;;;;7.60;1.17;;;;;;;20.29;44.11;100431.09;16107654;19;129548;-59
2023/12/24 16:19:01;;;;;;;4.63;0.73;;;;;;;20.28;44.37;100439.69;16107785;19;130246;-60
2023/12/24 16:24:24;;;;;;;4.35;0.93;;;;;;;20.24;44.27;100430.22;16104322;19;130212;-60
2023/12/24 16:29:46;;;;;;;8.55;2.25;;;;;;;20.22;44.30;100430.47;16104740;19;130930;-59
2023/12/24 16:35:10;;;;;;;6.78;1.92;;;;;;;20.19;44.83;100430.19;16103841;19;129715;-60
2023/12/24 16:40:32;;;;;;;7.20;2.40;;;;;;;20.16;44.70;100414.91;16108991;19;130580;-59
2023/12/24 16:45:54;;;;;;;4.90;2.83;;;;;;;20.14;45.34;100395.72;16112323;19;131652;-60
2023/12/24 16:51:17;;;;;;;11.25;6.53;;;;;;;20.14;46.26;100403.22;16116748;19;131086;-59
2023/12/24 16:56:40;;;;;;;12.27;5.45;;;;;;;20.14;46.08;100429.03;16110985;19;129474;-59
2023/12/24 17:02:03;;;;;;;9.32;5.30;;;;;;;20.17;46.56;100438.81;16108653;19;129728;-59
2023/12/24 17:07:25;;;;;;;10.38;4.78;;;;;;;20.21;46.82;100464.91;16102175;19;130745;-59
2023/12/24 17:12:47;;;;;;;13.88;6.45;;;;;;;20.26;46.78;100430.78;16106433;19;131347;-59
2023/12/24 17:18:10;;;;;;;24.05;8.25;;;;;;;20.26;46.19;100431.63;16119851;19;130725;-59
2023/12/24 17:23:32;;;;;;;16.75;8.50;;;;;;;20.28;46.63;100434.13;16119892;19;130352;-60
2023/12/24 17:28:55;;;;;;;13.90;7.70;;;;;;;20.31;46.80;100468.88;16121436;19;131755;-60
2023/12/24 17:34:16;;;;;;;15.30;6.88;;;;;;;20.36;46.68;100491.13;16124327;19;132739;-59
2023/12/24 17:39:40;;;;;;;11.80;6.85;;;;;;;20.36;47.07;100513.34;16116265;19;130754;-60
2023/12/24 17:45:03;;;;;;;17.20;7.00;;;;;;;20.35;46.92;100490.28;16116683;19;129415;-61
2023/12/24 17:50:24;;;;;;;22.05;8.10;;;;;;;20.34;47.08;100504.44;16119355;19;130091;-59
2023/12/24 17:55:46;;;;;;;16.92;6.88;;;;;;;20.35;47.22;100500.56;16116283;19;129824;-61
2023/12/24 18:01:08;;;;;;;17.90;7.18;;;;;;;20.38;47.18;100497.25;16116150;19;130184;-61
2023/12/24 18:06:31;;;;;;;14.93;6.05;;;;;;;20.45;47.22;100518.13;16114800;19;130930;-60
2023/12/24 18:11:53;;;;;;;21.88;5.78;;;;;;;20.62;47.69;100502.38;16114763;19;130604;-61
2023/12/24 18:17:15;;;;;;;24.75;5.00;;;;;;;20.76;47.63;100481.34;16108344;19;130714;-61
2023/12/24 18:22:37;;;;;;;13.88;5.15;;;;;;;20.92;47.22;100470.28;16114904;19;129823;-60
2023/12/24 18:27:59;;;;;;;14.63;4.85;;;;;;;21.08;47.15;100522.06;16116856;19;133307;-63
2023/12/24 18:33:21;;;;;;;12.30;4.63;;;;;;;21.29;47.08;100547.19;16109280;19;134941;-61
2023/12/24 18:38:44;;;;;;;11.63;4.30;;;;;;;21.51;47.22;100566.44;16110038;19;131709;-61
2023/12/24 18:44:08;;;;;;;;;;;;;;;21.70;47.16;100563.97;16113341;19;129516;-60
2023/12/24 18:49:30;;;;;;;14.45;3.92;;;;;;;21.90;46.49;100573.47;16109179;19;129757;-60
2023/12/24 18:54:53;;;;;;;17.45;4.25;;;;;;;22.06;46.71;100577.94;16108222;19;131027;-61
2023/12/24 19:00:15;;;;;;;8.85;3.35;;;;;;;22.21;46.65;100576.28;16105299;19;130390;-63
2023/12/24 19:05:37;;;;;;;11.50;3.45;;;;;;;22.28;46.28;100574.03;16100167;19;131258;-63
2023/12/24 19:10:59;;;;;;;15.63;3.03;;;;;;;22.28;46.26;100580.47;16099759;19;134574;-63
2023/12/24 19:16:21;;;;;;;11.45;3.03;;;;;;;22.27;45.72;100605.84;16109792;19;130405;-63
2023/12/24 19:21:43;;;;;;;10.52;3.00;;;;;;;22.19;45.92;100603.56;16103784;19;129811;-64
2023/12/24 19:27:06;;;;;;;12.25;3.50;;;;;;;22.11;46.02;100622.50;16106550;19;130874;-64
2023/12/24 19:32:28;;;;;;;12.88;2.58;;;;;;;22.05;46.19;100609.69;16105236;19;131294;-63
2023/12/24 19:37:50;;;;;;;21.25;3.22;;;;;;;21.95;45.38;100620.81;16105436;19;130856;-66
2023/12/24 19:43:12;;;;;;;18.52;3.47;;;;;;;21.87;45.46;100626.94;16108716;19;130396;-66
2023/12/24 19:48:34;;;;;;;26.17;3.45;;;;;;;21.80;45.85;100614.09;16111978;19;129879;-65
2023/12/24 19:53:56;;;;;;;21.15;3.90;;;;;;;21.76;45.46;100632.50;16110911;19;131931;-64
2023/12/24 19:59:18;;;;;;;31.17;3.20;;;;;;;21.72;45.99;100628.56;16104536;19;130819;-66
2023/12/24 20:04:41;;;;;;;16.77;3.17;;;;;;;21.68;46.15;100641.38;16105106;19;130895;-64
2023/12/24 20:10:04;;;;;;;15.90;2.90;;;;;;;21.64;46.13;100643.03;16106612;19;130629;-65
2023/12/24 20:15:26;;;;;;;26.38;3.78;;;;;;;21.59;46.60;100652.22;16109347;19;129845;-65
2023/12/24 20:20:49;;;;;;;32.67;3.75;;;;;;;21.55;46.89;100625.19;16104821;19;129483;-66
2023/12/24 20:26:11;;;;;;;20.40;3.35;;;;;;;21.50;46.60;100628.78;16104006;19;130298;-65
2023/12/24 20:31:33;;;;;;;16.88;3.22;;;;;;;21.45;46.44;100637.91;16107018;19;130672;-65
2023/12/24 20:36:55;;;;;;;18.75;3.22;;;;;;;21.39;46.74;100652.94;16105364;19;130777;-66
2023/12/24 20:42:18;;;;;;;18.77;3.47;;;;;;;21.36;46.75;100636.78;16103905;19;129481;-67
2023/12/24 20:47:40;;;;;;;13.88;3.05;;;;;;;21.33;47.07;100651.22;16114490;19;129659;-65
2023/12/24 20:53:02;;;;;;;14.15;2.95;;;;;;;21.28;47.42;100652.06;16119398;19;129769;-66
2023/12/24 20:58:24;;;;;;;12.50;2.58;;;;;;;21.30;47.54;100657.34;16123366;19;129661;-66
2023/12/24 21:03:47;;;;;;;15.30;2.35;;;;;;;21.38;47.79;100656.84;16120884;19;131327;-66
2023/12/24 21:09:09;;;;;;;15.60;2.28;;;;;;;21.45;47.23;100667.72;16115025;19;130288;-65
2023/12/24 21:14:36;;;;;;;14.23;2.40;;;;;;;21.47;47.64;100655.19;16119051;19;129542;-66
2023/12/24 21:19:58;;;;;;;11.30;2.13;;;;;;;21.45;47.29;100685.22;16118680;19;130503;-67
2023/12/24 21:25:20;;;;;;;10.82;2.00;;;;;;;21.40;47.47;100681.59;16120344;19;131377;-67
2023/12/24 21:30:42;;;;;;;12.13;1.83;;;;;;;21.33;47.55;100685.47;16119726;19;129729;-67
2023/12/24 21:36:04;;;;;;;9.77;2.00;;;;;;;21.23;47.36;100679.88;16122592;19;129724;-67
2023/12/24 21:41:26;;;;;;;7.40;1.42;;;;;;;21.15;47.47;100678.44;16118898;19;129575;-67
2023/12/24 21:46:48;;;;;;;6.47;1.42;;;;;;;21.05;47.66;100686.69;16118989;19;129745;-67
2023/12/24 21:52:10;;;;;;;10.68;1.77;;;;;;;20.96;47.74;100677.19;16119450;19;129933;-67
2023/12/24 21:57:32;;;;;;;8.40;1.20;;;;;;;20.85;47.72;100676.28;16112396;19;129331;-66
2023/12/24 22:02:54;;;;;;;7.45;1.50;;;;;;;20.77;48.00;100666.50;16119383;19;129446;-66
2023/12/24 22:08:16;;;;;;;8.40;1.33;;;;;;;20.70;48.04;100663.06;16119468;19;130517;-67
2023/12/24 22:13:40;;;;;;;4.70;1.20;;;;;;;20.63;48.32;100665.25;16115931;19;129825;-67
2023/12/24 22:19:02;;;;;;;9.23;1.90;;;;;;;20.53;48.17;100661.31;16115082;19;130252;-67
2023/12/24 22:24:24;;;;;;;9.88;1.80;;;;;;;20.47;48.21;100664.31;16115835;19;129681;-67
2023/12/24 22:29:47;;;;;;;12.82;1.63;;;;;;;20.41;48.65;100649.53;16111719;19;131008;-71
2023/12/24 22:35:10;;;;;;;12.90;1.40;;;;;;;20.29;47.87;100667.22;16107938;19;130752;-69
2023/12/24 22:40:32;;;;;;;9.15;1.05;;;;;;;20.21;47.86;100662.13;16110051;19;129810;-66
2023/12/24 22:45:53;;;;;;;20.45;1.98;;;;;;;20.14;47.30;100661.50;16113752;19;130615;-68
2023/12/24 22:51:16;;;;;;;9.75;1.40;;;;;;;20.07;47.75;100671.97;16118498;19;133758;-68
2023/12/24 22:56:38;;;;;;;14.13;1.63;;;;;;;19.99;47.52;100667.72;16119647;19;129868;-68
2023/12/24 23:02:02;;;;;;;14.63;1.23;;;;;;;19.95;47.88;100670.16;16110899;19;129724;-69
2023/12/24 23:07:24;;;;;;;7.28;1.17;;;;;;;19.89;47.29;100676.78;16114561;19;130714;-68
2023/12/24 23:12:46;;;;;;;7.82;1.10;;;;;;;19.85;47.27;100672.84;16109651;19;129623;-68
2023/12/24 23:18:08;;;;;;;5.88;0.98;;;;;;;19.79;47.30;100666.41;16112525;19;129489;-69
2023/12/24 23:23:31;;;;;;;4.35;0.82;;;;;;;19.75;47.67;100650.53;16111895;19;131316;-69
2023/12/24 23:28:53;;;;;;;8.63;1.55;;;;;;;19.68;47.79;100671.00;16107310;19;130156;-68
2023/12/24 23:34:14;;;;;;;8.93;1.20;;;;;;;19.64;47.55;100652.34;16112949;19;134729;-68
2023/12/24 23:39:37;;;;;;;6.90;1.40;;;;;;;19.60;47.38;100645.66;16114777;19;129995;-69
2023/12/24 23:44:59;;;;;;;6.60;0.80;;;;;;;19.55;47.87;100649.22;16114431;19;129594;-68
2023/12/24 23:50:21;;;;;;;3.78;0.70;;;;;;;19.53;47.30;100654.16;16108776;19;129877;-69
2023/12/24 23:55:43;;;;;;;4.97;0.80;;;;;;;19.49;47.65;100653.00;16113064;19;129891;-69
